createdAt,value
2023-08-14T00:01:29.363Z,1.80
2023-08-14T00:03:56.697Z,2.45
2023-08-14T00:06:23.673Z,2.20
2023-08-14T00:08:50.564Z,1.80
2023-08-14T00:11:17.388Z,2.33
2023-08-14T00:13:57.593Z,2.40
2023-08-14T00:16:27.061Z,2.10
2023-08-14T00:18:54.743Z,2.10
2023-08-14T00:21:25.645Z,2.00
2023-08-14T00:23:53.948Z,2.05
2023-08-14T00:26:20.859Z,2.53
2023-08-14T00:28:48.031Z,2.33
2023-08-14T00:31:15.100Z,2.00
2023-08-14T00:33:42.120Z,2.10
2023-08-14T00:36:08.983Z,2.22
2023-08-14T00:38:35.926Z,2.00
2023-08-14T00:41:02.936Z,1.95
2023-08-14T00:43:31.107Z,1.90
2023-08-14T00:45:58.699Z,1.98
2023-08-14T00:48:27.896Z,2.47
2023-08-14T00:50:55.931Z,2.50
2023-08-14T00:53:27.561Z,2.72
2023-08-14T00:55:55.537Z,2.65
2023-08-14T00:58:24.306Z,2.33
2023-08-14T01:00:51.668Z,2.20
2023-08-14T01:03:21.496Z,2.15
2023-08-14T01:05:51.579Z,2.05
2023-08-14T01:08:18.888Z,2.17
2023-08-14T01:11:22.906Z,2.33
2023-08-14T01:14:06.296Z,2.03
2023-08-14T01:16:39.379Z,2.27
2023-08-14T01:19:10.590Z,2.13
2023-08-14T01:21:48.668Z,2.20
2023-08-14T01:24:27.271Z,2.47
2023-08-14T01:26:57.662Z,2.10
2023-08-14T01:29:24.608Z,2.40
2023-08-14T01:31:51.526Z,2.60
2023-08-14T01:34:18.878Z,2.35
2023-08-14T01:37:26.776Z,2.10
2023-08-14T01:40:02.492Z,2.33
2023-08-14T01:42:37.810Z,2.50
2023-08-14T01:45:15.358Z,2.47
2023-08-14T01:47:43.773Z,2.25
2023-08-14T01:50:11.937Z,2.20
2023-08-14T01:52:38.819Z,2.05
2023-08-14T01:55:06.069Z,2.03
2023-08-14T01:57:34.307Z,2.13
2023-08-14T02:00:02.409Z,2.45
2023-08-14T02:02:29.374Z,2.03
2023-08-14T02:04:58.521Z,2.00
2023-08-14T02:07:25.381Z,2.00
2023-08-14T02:09:52.913Z,1.92
2023-08-14T02:12:20.025Z,2.53
2023-08-14T02:14:47.228Z,1.85
2023-08-14T02:17:15.108Z,1.98
2023-08-14T02:19:41.945Z,2.13
2023-08-14T02:22:09.227Z,2.35
2023-08-14T02:24:37.384Z,2.30
2023-08-14T02:27:05.024Z,2.15
2023-08-14T02:29:32.036Z,2.05
2023-08-14T02:32:00.360Z,2.53
2023-08-14T02:34:42.740Z,2.20
2023-08-14T02:37:09.862Z,2.00
2023-08-14T02:39:37.015Z,2.40
2023-08-14T02:42:04.734Z,2.08
2023-08-14T02:44:34.185Z,2.05
2023-08-14T02:47:01.960Z,2.38
2023-08-14T02:49:31.318Z,2.22
2023-08-14T02:51:58.744Z,2.65
2023-08-14T02:54:26.055Z,1.90
2023-08-14T02:56:54.853Z,2.03
2023-08-14T02:59:22.896Z,2.03
2023-08-14T03:01:50.279Z,2.10
2023-08-14T03:04:17.847Z,2.40
2023-08-14T03:06:45.316Z,2.00
2023-08-14T03:09:13.067Z,2.58
2023-08-14T03:11:40.378Z,2.20
2023-08-14T03:14:07.721Z,2.13
2023-08-14T03:16:34.786Z,1.98
2023-08-14T03:19:02.388Z,2.08
2023-08-14T03:21:29.372Z,2.20
2023-08-14T03:23:56.218Z,2.42
2023-08-14T03:26:23.653Z,2.15
2023-08-14T03:28:50.585Z,2.20
2023-08-14T03:31:17.530Z,2.20
2023-08-14T03:33:44.522Z,2.60
2023-08-14T03:36:12.297Z,2.10
2023-08-14T03:38:39.197Z,2.05
2023-08-14T03:41:06.196Z,2.40
2023-08-14T03:43:34.372Z,2.35
2023-08-14T03:46:01.310Z,2.15
2023-08-14T03:48:28.146Z,2.20
2023-08-14T03:50:55.104Z,2.50
2023-08-14T03:53:21.948Z,2.35
2023-08-14T03:55:51.765Z,2.38
2023-08-14T03:58:19.317Z,2.20
2023-08-14T04:00:48.434Z,2.35
2023-08-14T04:03:15.700Z,2.10
2023-08-14T04:05:43.649Z,1.85
2023-08-14T04:08:10.659Z,2.42
2023-08-14T04:10:41.688Z,2.28
2023-08-14T04:13:08.624Z,2.28
2023-08-14T04:15:35.534Z,2.30
2023-08-14T04:18:04.056Z,2.38
2023-08-14T04:20:31.240Z,2.47
2023-08-14T04:22:58.232Z,2.42
2023-08-14T04:25:25.160Z,2.17
2023-08-14T04:27:52.047Z,2.13
2023-08-14T04:30:18.995Z,2.75
2023-08-14T04:32:46.044Z,2.50
2023-08-14T04:35:12.966Z,2.28
2023-08-14T04:37:39.887Z,2.20
2023-08-14T04:40:07.517Z,2.33
2023-08-14T04:42:35.192Z,2.22
2023-08-14T04:45:03.036Z,2.33
2023-08-14T04:47:30.041Z,2.83
2023-08-14T04:49:58.674Z,2.35
2023-08-14T04:52:25.619Z,2.28
2023-08-14T04:54:52.804Z,2.67
2023-08-14T04:57:19.700Z,2.53
2023-08-14T04:59:48.690Z,2.20
2023-08-14T05:02:15.905Z,2.25
2023-08-14T05:04:43.303Z,2.47
2023-08-14T05:07:10.203Z,2.20
2023-08-14T05:09:37.165Z,2.30
2023-08-14T05:12:04.714Z,2.50
2023-08-14T05:14:35.948Z,2.47
2023-08-14T05:17:04.599Z,2.42
2023-08-14T05:19:31.455Z,2.17
2023-08-14T05:21:58.604Z,2.88
2023-08-14T05:24:25.566Z,2.38
2023-08-14T05:26:52.428Z,2.30
2023-08-14T05:29:20.685Z,2.20
2023-08-14T05:31:47.638Z,2.40
2023-08-14T05:34:14.666Z,2.40
2023-08-14T05:36:42.404Z,2.63
2023-08-14T05:39:12.030Z,2.35
2023-08-14T05:41:38.932Z,2.38
2023-08-14T05:44:06.836Z,2.45
2023-08-14T05:46:33.977Z,2.70
2023-08-14T05:49:01.262Z,2.50
2023-08-14T05:51:31.753Z,2.20
2023-08-14T05:53:58.664Z,2.60
2023-08-14T05:56:25.517Z,3.17
2023-08-14T05:58:52.395Z,2.75
2023-08-14T06:01:19.323Z,2.72
2023-08-14T06:03:46.534Z,2.58
2023-08-14T06:06:14.772Z,2.15
2023-08-14T06:08:41.676Z,2.10
2023-08-14T06:11:13.893Z,2.55
2023-08-14T06:13:46.453Z,2.72
2023-08-14T06:16:13.630Z,2.53
2023-08-14T06:18:40.647Z,2.97
2023-08-14T06:21:07.593Z,2.25
2023-08-14T06:23:35.699Z,2.35
2023-08-14T06:26:02.793Z,2.63
2023-08-14T06:28:30.962Z,2.42
2023-08-14T06:31:04.953Z,2.55
2023-08-14T06:33:32.642Z,2.47
2023-08-14T06:35:59.613Z,2.33
2023-08-14T06:38:26.544Z,2.25
2023-08-14T06:40:53.500Z,2.25
2023-08-14T06:43:22.162Z,2.28
2023-08-14T06:45:49.089Z,2.33
2023-08-14T06:48:16.056Z,2.38
2023-08-14T06:50:43.300Z,2.28
2023-08-14T06:53:10.174Z,2.33
2023-08-14T06:55:38.640Z,2.70
2023-08-14T06:58:07.321Z,2.30
2023-08-14T07:00:34.269Z,2.20
2023-08-14T07:03:01.311Z,2.08
2023-08-14T07:05:28.288Z,1.92
2023-08-14T07:07:55.263Z,2.38
2023-08-14T07:10:22.256Z,2.20
2023-08-14T07:12:49.685Z,2.35
2023-08-14T07:15:19.858Z,1.83
2023-08-14T07:17:48.975Z,2.33
2023-08-14T07:20:15.938Z,2.28
2023-08-14T07:22:44.038Z,2.22
2023-08-14T07:25:10.880Z,2.20
2023-08-14T07:27:37.801Z,2.20
2023-08-14T07:30:07.517Z,1.88
2023-08-14T07:32:35.741Z,1.90
2023-08-14T07:35:03.369Z,2.40
2023-08-14T07:37:31.961Z,2.25
2023-08-14T07:39:59.066Z,2.10
2023-08-14T07:42:26.001Z,2.20
2023-08-14T07:44:52.930Z,2.40
2023-08-14T07:47:19.940Z,2.08
2023-08-14T07:49:46.816Z,2.33
2023-08-14T07:52:13.744Z,2.00
2023-08-14T07:54:40.780Z,2.38
2023-08-14T07:57:07.626Z,2.00
2023-08-14T07:59:34.591Z,2.20
2023-08-14T08:02:01.520Z,2.00
2023-08-14T08:04:39.503Z,2.40
2023-08-14T08:07:07.187Z,2.25
2023-08-14T08:09:34.076Z,1.98
2023-08-14T08:12:02.277Z,2.35
2023-08-14T08:14:29.263Z,2.30
2023-08-14T08:16:56.238Z,2.30
2023-08-14T08:19:23.217Z,2.38
2023-08-14T08:21:51.094Z,1.92
2023-08-14T08:24:19.362Z,2.10
2023-08-14T08:26:47.752Z,2.08
2023-08-14T08:29:15.639Z,2.42
2023-08-14T08:31:42.683Z,2.28
2023-08-14T08:34:09.997Z,1.92
2023-08-14T08:36:36.860Z,3.00
2023-08-14T08:39:04.005Z,2.38
2023-08-14T08:41:39.682Z,2.15
2023-08-14T08:44:32.691Z,2.17
2023-08-14T08:47:07.647Z,2.17
2023-08-14T08:49:35.917Z,2.35
2023-08-14T08:52:06.283Z,2.00
2023-08-14T08:54:33.590Z,1.85
2023-08-14T08:57:01.385Z,2.08
2023-08-14T08:59:28.623Z,2.13
2023-08-14T09:01:58.507Z,2.17
2023-08-14T09:04:25.893Z,2.42
2023-08-14T09:06:53.410Z,2.25
2023-08-14T09:09:21.471Z,2.50
2023-08-14T09:11:48.414Z,2.63
2023-08-14T09:14:18.875Z,2.28
2023-08-14T09:16:45.959Z,2.10
2023-08-14T09:19:17.186Z,2.17
2023-08-14T09:21:46.410Z,2.30
2023-08-14T09:24:16.364Z,2.10
2023-08-14T09:26:44.899Z,2.75
2023-08-14T09:31:47.075Z,2.53
2023-08-14T09:34:18.739Z,2.67
2023-08-14T09:36:46.132Z,2.63
2023-08-14T09:39:13.628Z,2.20
2023-08-14T09:41:40.747Z,2.63
2023-08-14T09:44:07.713Z,2.58
2023-08-14T09:46:34.691Z,2.60
2023-08-14T09:49:02.439Z,2.05
2023-08-14T09:51:29.299Z,2.80
2023-08-14T09:54:00.126Z,2.35
2023-08-14T09:56:29.319Z,2.58
2023-08-14T09:58:57.387Z,2.45
2023-08-14T10:01:24.634Z,2.17
2023-08-14T10:03:56.913Z,2.42
2023-08-14T10:06:26.881Z,2.03
2023-08-14T10:08:57.477Z,2.97
2023-08-14T10:11:27.836Z,2.63
2023-08-14T10:14:08.024Z,2.15
2023-08-14T10:16:39.634Z,2.15
2023-08-14T10:19:11.312Z,2.50
2023-08-14T10:21:41.613Z,2.45
2023-08-14T10:24:09.690Z,2.45
2023-08-14T10:26:36.940Z,2.17
2023-08-14T10:29:06.558Z,2.40
2023-08-14T10:31:34.278Z,2.50
2023-08-14T10:34:02.594Z,2.30
2023-08-14T10:36:31.773Z,2.80
2023-08-14T10:39:11.177Z,2.55
2023-08-14T10:41:38.222Z,2.80
2023-08-14T10:44:07.249Z,2.80
2023-08-14T10:46:39.037Z,2.60
2023-08-14T10:49:07.044Z,3.10
2023-08-14T10:51:35.471Z,3.20
2023-08-14T10:54:16.119Z,2.30
2023-08-14T10:56:50.845Z,2.65
2023-08-14T10:59:34.282Z,3.17
2023-08-14T11:02:06.722Z,2.55
2023-08-14T11:04:37.902Z,2.50
2023-08-14T11:07:07.923Z,2.72
2023-08-14T11:09:38.981Z,2.85
2023-08-14T11:12:09.136Z,3.58
2023-08-14T11:14:38.197Z,4.70
2023-08-14T11:17:05.458Z,4.28
2023-08-14T11:19:35.248Z,3.38
2023-08-14T11:22:02.348Z,3.50
2023-08-14T11:24:31.017Z,3.30
2023-08-14T11:27:02.262Z,3.20
2023-08-14T11:29:32.834Z,3.55
2023-08-14T11:32:13.932Z,2.97
2023-08-14T11:34:41.433Z,3.40
2023-08-14T11:37:11.775Z,3.63
2023-08-14T11:39:39.082Z,3.00
2023-08-14T11:42:08.819Z,3.55
2023-08-14T11:44:37.822Z,3.65
2023-08-14T11:47:08.744Z,4.05
2023-08-14T11:49:39.996Z,3.22
2023-08-14T11:52:07.102Z,3.10
2023-08-14T11:54:36.932Z,3.20
2023-08-14T11:57:09.000Z,3.28
2023-08-14T11:59:38.832Z,3.08
2023-08-14T12:02:13.252Z,3.60
2023-08-14T12:04:43.294Z,3.70
2023-08-14T12:07:10.729Z,4.13
2023-08-14T12:09:39.538Z,3.63
2023-08-14T12:12:08.141Z,4.50
2023-08-14T12:14:49.122Z,3.63
2023-08-14T12:17:22.292Z,4.50
2023-08-14T12:19:56.228Z,3.33
2023-08-14T12:22:25.672Z,3.35
2023-08-14T12:24:55.662Z,4.00
2023-08-14T12:27:27.802Z,3.92
2023-08-14T12:29:56.701Z,3.67
2023-08-14T12:32:25.638Z,3.45
2023-08-14T12:34:54.165Z,3.78
2023-08-14T12:37:21.979Z,3.72
2023-08-14T12:39:52.663Z,3.72
2023-08-14T12:42:20.105Z,3.70
2023-08-14T12:44:47.154Z,3.47
2023-08-14T12:47:14.079Z,3.72
2023-08-14T12:49:41.072Z,3.88
2023-08-14T12:52:10.158Z,3.40
2023-08-14T12:54:39.661Z,3.88
2023-08-14T12:57:07.464Z,4.15
2023-08-14T12:59:36.110Z,3.25
2023-08-14T13:02:03.031Z,3.60
2023-08-14T13:04:29.931Z,3.22
2023-08-14T13:06:57.335Z,3.47
2023-08-14T13:09:24.164Z,3.33
2023-08-14T13:11:51.129Z,3.65
2023-08-14T13:14:19.536Z,3.40
2023-08-14T13:16:46.503Z,3.17
2023-08-14T13:19:14.349Z,3.90
2023-08-14T13:21:41.411Z,3.45
2023-08-14T13:24:09.181Z,3.35
2023-08-14T13:26:38.971Z,3.30
2023-08-14T13:29:07.015Z,3.20
2023-08-14T13:31:35.229Z,4.03
2023-08-14T13:34:02.169Z,3.17
2023-08-14T13:36:29.164Z,3.35
2023-08-14T13:38:57.449Z,3.33
2023-08-14T13:41:24.349Z,4.00
2023-08-14T13:43:51.958Z,3.55
2023-08-14T13:46:18.875Z,3.03
2023-08-14T13:48:45.918Z,3.00
2023-08-14T13:51:12.836Z,3.47
2023-08-14T13:53:39.740Z,3.45
2023-08-14T13:56:07.756Z,3.33
2023-08-14T13:58:35.851Z,3.40
2023-08-14T14:01:05.095Z,3.42
2023-08-14T14:03:32.062Z,3.30
2023-08-14T14:06:00.599Z,3.22
2023-08-14T14:08:28.034Z,3.40
2023-08-14T14:10:55.011Z,3.45
2023-08-14T14:13:23.053Z,3.40
2023-08-14T14:15:53.756Z,3.25
2023-08-14T14:18:20.636Z,3.03
2023-08-14T14:20:48.479Z,3.67
2023-08-14T14:23:15.582Z,3.00
2023-08-14T14:25:44.484Z,3.13
2023-08-14T14:28:12.426Z,2.42
2023-08-14T14:30:39.529Z,2.70
2023-08-14T14:33:07.908Z,2.95
2023-08-14T14:35:34.765Z,3.33
2023-08-14T14:38:02.049Z,2.97
2023-08-14T14:40:30.440Z,6.55
2023-08-14T14:42:59.472Z,3.22
2023-08-14T14:45:34.768Z,3.17
2023-08-14T14:48:02.969Z,3.38
2023-08-14T14:50:31.046Z,3.10
2023-08-14T14:52:58.707Z,3.42
2023-08-14T14:55:29.399Z,3.20
2023-08-14T14:57:56.340Z,3.63
2023-08-14T15:00:24.306Z,3.83
2023-08-14T15:02:52.812Z,2.97
2023-08-14T15:07:50.399Z,3.00
2023-08-14T15:10:17.247Z,2.63
2023-08-14T15:12:44.661Z,3.17
2023-08-14T15:15:13.114Z,3.13
2023-08-14T15:17:44.347Z,3.00
2023-08-14T15:20:13.455Z,2.97
2023-08-14T15:22:44.760Z,3.20
2023-08-14T15:25:13.227Z,3.53
2023-08-14T15:27:41.640Z,3.50
2023-08-14T15:30:10.697Z,3.65
2023-08-14T15:32:37.701Z,3.45
2023-08-14T15:35:05.235Z,3.20
2023-08-14T15:37:32.467Z,3.47
2023-08-14T15:39:59.342Z,3.15
2023-08-14T15:42:26.277Z,3.10
2023-08-14T15:44:55.771Z,2.70
2023-08-14T15:47:23.664Z,3.42
2023-08-14T15:49:50.730Z,3.40
2023-08-14T15:52:18.878Z,3.35
2023-08-14T15:54:53.268Z,2.85
2023-08-14T15:57:22.156Z,2.75
2023-08-14T15:59:49.667Z,3.40
2023-08-14T16:02:21.227Z,3.10
2023-08-14T16:04:52.234Z,3.83
2023-08-14T16:07:20.599Z,3.20
2023-08-14T16:09:48.308Z,3.30
2023-08-14T16:12:15.260Z,3.58
2023-08-14T16:14:42.174Z,2.80
2023-08-14T16:17:11.754Z,3.03
2023-08-14T16:19:40.470Z,3.45
2023-08-14T16:22:07.348Z,3.10
2023-08-14T16:24:35.020Z,2.78
2023-08-14T16:27:04.361Z,2.90
2023-08-14T16:29:32.366Z,3.13
2023-08-14T16:32:02.621Z,2.95
2023-08-14T16:34:29.552Z,2.78
2023-08-14T16:36:56.395Z,3.28
2023-08-14T16:39:23.938Z,2.70
2023-08-14T16:41:58.040Z,2.75
2023-08-14T16:44:25.316Z,2.80
2023-08-14T16:46:53.419Z,3.03
2023-08-14T16:49:20.357Z,2.83
2023-08-14T16:51:47.279Z,3.13
2023-08-14T16:54:14.106Z,3.30
2023-08-14T16:56:41.027Z,3.20
2023-08-14T16:59:08.361Z,3.00
2023-08-14T17:01:36.721Z,2.60
2023-08-14T17:04:04.415Z,2.75
2023-08-14T17:06:32.384Z,2.20
2023-08-14T17:08:59.344Z,2.30
2023-08-14T17:11:26.356Z,2.35
2023-08-14T17:13:53.263Z,2.13
2023-08-14T17:16:22.269Z,2.65
2023-08-14T17:18:49.792Z,2.10
2023-08-14T17:21:17.130Z,2.70
2023-08-14T17:23:44.249Z,2.40
2023-08-14T17:26:11.134Z,2.58
2023-08-14T17:28:38.281Z,2.60
2023-08-14T17:31:05.872Z,2.33
2023-08-14T17:33:32.745Z,2.60
2023-08-14T17:35:59.868Z,2.65
2023-08-14T17:38:26.778Z,2.25
2023-08-14T17:40:53.762Z,2.38
2023-08-14T17:43:21.928Z,2.08
2023-08-14T17:45:50.750Z,2.33
2023-08-14T17:48:18.171Z,2.40
2023-08-14T17:50:50.933Z,2.53
2023-08-14T17:53:18.986Z,2.35
2023-08-14T17:55:46.172Z,2.50
2023-08-14T17:58:14.181Z,2.30
2023-08-14T18:00:49.072Z,2.70
2023-08-14T18:03:25.694Z,2.58
2023-08-14T18:05:53.779Z,2.25
2023-08-14T18:08:21.393Z,2.33
2023-08-14T18:10:49.021Z,2.35
2023-08-14T18:13:15.932Z,2.35
2023-08-14T18:15:43.316Z,2.45
2023-08-14T18:18:12.901Z,2.63
2023-08-14T18:20:39.738Z,2.58
2023-08-14T18:23:07.689Z,2.40
2023-08-14T18:25:34.715Z,2.15
2023-08-14T18:28:01.637Z,2.85
2023-08-14T18:30:28.475Z,2.35
2023-08-14T18:32:55.457Z,2.33
2023-08-14T18:35:22.477Z,2.50
2023-08-14T18:37:49.372Z,2.45
2023-08-14T18:40:16.354Z,2.45
2023-08-14T18:42:43.200Z,2.63
2023-08-14T18:45:10.292Z,3.00
2023-08-14T18:47:38.192Z,2.95
2023-08-14T18:50:06.700Z,2.38
2023-08-14T18:52:36.510Z,2.65
2023-08-14T18:55:05.391Z,2.22
2023-08-14T18:57:33.761Z,2.13
2023-08-14T19:00:00.875Z,2.85
2023-08-14T19:02:28.373Z,2.83
2023-08-14T19:04:55.939Z,2.50
2023-08-14T19:07:24.068Z,2.42
2023-08-14T19:09:52.021Z,2.60
2023-08-14T19:12:18.986Z,2.58
2023-08-14T19:14:45.859Z,2.53
2023-08-14T19:17:12.711Z,2.47
2023-08-14T19:19:39.584Z,2.55
2023-08-14T19:22:06.732Z,2.60
2023-08-14T19:24:35.425Z,2.53
2023-08-14T19:27:02.274Z,2.63
2023-08-14T19:29:30.022Z,2.70
2023-08-14T19:31:57.740Z,2.63
2023-08-14T19:34:24.854Z,2.38
2023-08-14T19:36:51.938Z,2.38
2023-08-14T19:39:18.746Z,2.47
2023-08-14T19:41:46.549Z,2.72
2023-08-14T19:44:14.129Z,2.35
2023-08-14T19:46:41.373Z,3.08
2023-08-14T19:49:09.233Z,2.47
2023-08-14T19:51:37.147Z,2.50
2023-08-14T19:54:04.475Z,2.50
2023-08-14T19:56:31.351Z,2.63
2023-08-14T19:58:58.206Z,2.30
2023-08-14T20:01:26.397Z,2.63
2023-08-14T20:03:54.533Z,2.70
2023-08-14T20:06:23.640Z,2.78
2023-08-14T20:08:55.412Z,2.55
2023-08-14T20:11:22.266Z,2.45
2023-08-14T20:13:49.246Z,2.83
2023-08-14T20:16:16.256Z,2.70
2023-08-14T20:18:43.097Z,2.20
2023-08-14T20:21:10.430Z,2.42
2023-08-14T20:23:38.670Z,2.40
2023-08-14T20:26:06.824Z,2.42
2023-08-14T20:28:37.535Z,2.63
2023-08-14T20:31:04.609Z,2.83
2023-08-14T20:33:31.578Z,2.90
2023-08-14T20:35:58.446Z,2.67
2023-08-14T20:38:25.401Z,2.67
2023-08-14T20:40:58.308Z,2.58
2023-08-14T20:43:33.106Z,2.87
2023-08-14T20:46:00.102Z,2.63
2023-08-14T20:48:29.065Z,2.55
2023-08-14T20:50:57.004Z,2.53
2023-08-14T20:53:27.201Z,2.67
2023-08-14T20:55:54.058Z,2.75
2023-08-14T20:58:20.934Z,2.45
2023-08-14T21:00:51.342Z,2.85
2023-08-14T21:03:18.494Z,2.60
2023-08-14T21:05:50.037Z,2.55
2023-08-14T21:08:17.752Z,3.17
2023-08-14T21:10:45.101Z,2.90
2023-08-14T21:13:12.022Z,3.15
2023-08-14T21:15:39.102Z,3.35
2023-08-14T21:18:08.748Z,3.00
2023-08-14T21:20:35.694Z,3.03
2023-08-14T21:23:03.017Z,3.13
2023-08-14T21:25:34.757Z,2.40
2023-08-14T21:28:05.436Z,3.05
2023-08-14T21:30:35.030Z,2.90
2023-08-14T21:33:02.361Z,3.35
2023-08-14T21:35:29.615Z,3.55
2023-08-14T21:37:56.477Z,2.85
2023-08-14T21:40:23.378Z,2.70
2023-08-14T21:42:50.280Z,3.00
2023-08-14T21:45:17.442Z,2.83
2023-08-14T21:47:44.322Z,3.03
2023-08-14T21:50:11.272Z,3.20
2023-08-14T21:52:38.180Z,3.13
2023-08-14T21:55:06.259Z,3.30
2023-08-14T21:57:33.364Z,2.80
2023-08-14T22:00:01.231Z,2.85
2023-08-14T22:02:29.545Z,2.90
2023-08-14T22:04:56.534Z,2.78
2023-08-14T22:07:23.456Z,3.30
2023-08-14T22:09:50.672Z,2.80
2023-08-14T22:12:17.603Z,3.33
2023-08-14T22:14:45.356Z,2.83
2023-08-14T22:17:12.776Z,3.53
2023-08-14T22:19:39.631Z,2.65
2023-08-14T22:22:06.526Z,3.20
2023-08-14T22:27:06.627Z,2.75
2023-08-14T22:29:33.984Z,2.67
2023-08-14T22:32:01.090Z,2.83
2023-08-14T22:34:27.938Z,3.20
2023-08-14T22:36:54.780Z,2.83
2023-08-14T22:39:21.643Z,2.95
2023-08-14T22:41:48.548Z,2.83
2023-08-14T22:44:16.719Z,3.10
2023-08-14T22:46:43.805Z,3.13
2023-08-14T22:49:12.516Z,2.90
2023-08-14T22:51:39.826Z,2.72
2023-08-14T22:54:07.937Z,3.00
2023-08-14T22:56:34.795Z,3.53
2023-08-14T22:59:01.700Z,3.08
2023-08-14T23:01:29.500Z,3.08
2023-08-14T23:03:56.550Z,2.90
2023-08-14T23:06:23.433Z,3.10
2023-08-14T23:08:50.341Z,3.00
2023-08-14T23:11:17.324Z,2.78
2023-08-14T23:13:44.461Z,3.05
2023-08-14T23:16:11.527Z,3.17
2023-08-14T23:18:38.429Z,3.20
2023-08-14T23:21:07.170Z,2.85
2023-08-14T23:23:34.051Z,3.53
2023-08-14T23:26:01.009Z,3.00
2023-08-14T23:28:27.918Z,3.30
2023-08-14T23:31:00.197Z,2.95
2023-08-14T23:33:27.083Z,3.20
2023-08-14T23:35:53.946Z,3.15
2023-08-14T23:38:21.658Z,2.80
2023-08-14T23:40:48.505Z,3.33
2023-08-14T23:43:15.658Z,2.90
2023-08-14T23:45:42.549Z,3.05
2023-08-14T23:48:09.538Z,3.03
2023-08-14T23:50:37.006Z,3.03
2023-08-14T23:53:04.336Z,3.67
2023-08-14T23:55:32.747Z,3.30
2023-08-14T23:58:00.037Z,3.58
